Time;durP1;ratioP1;P1;durP2;ratioP2;P2;SDS_P1;SDS_P2;PMS_P1;PMS_P2;Temp;Humidity;BMP_temperature;BMP_pressure;BME280_temperature;BME280_humidity;BME280_pressure;Samples;Min_cycle;Max_cycle;Signal;HPM_P1;HPM_P2
2023/01/22 00:02:15;;;;;;;;;;;0.50;99.90;;;;;;5121682;27;19918;-57
2023/01/22 00:04:41;;;;;;;;;;;0.50;99.90;;;;;;5130917;27;19915;-57
2023/01/22 00:07:07;;;;;;;;;;;0.50;99.90;;;;;;5113634;28;20214;-56
2023/01/22 00:09:32;;;;;;;;;;;0.50;99.90;;;;;;5113416;28;19908;-57
2023/01/22 00:11:58;;;;;;;;;;;0.50;99.90;;;;;;5112753;28;19908;-56
2023/01/22 00:14:23;;;;;;;;;;;0.40;99.90;;;;;;5113488;28;19908;-57
2023/01/22 00:16:49;;;;;;;;;;;0.40;99.90;;;;;;5113309;28;19998;-56
2023/01/22 00:19:14;;;;;;;;;;;0.40;99.90;;;;;;5112528;28;19912;-57
2023/01/22 00:21:39;;;;;;;;;;;0.40;99.90;;;;;;5116023;27;19919;-57
2023/01/22 00:24:05;;;;;;;;;;;0.30;99.90;;;;;;5113047;28;19915;-57
2023/01/22 00:26:31;;;;;;;;;;;0.20;99.90;;;;;;5112375;28;20027;-56
2023/01/22 00:28:56;;;;;;;;;;;0.20;99.90;;;;;;5113249;28;19915;-57
2023/01/22 00:31:22;;;;;;;;;;;0.20;99.90;;;;;;5113361;28;20002;-56
2023/01/22 00:33:47;;;;;;;;;;;0.20;99.90;;;;;;5112186;28;20003;-56
2023/01/22 00:36:14;;;;;;;;;;;0.20;99.90;;;;;;5126412;27;19918;-57
2023/01/22 00:38:40;;;;;;;;;;;0.20;99.90;;;;;;5133748;27;19907;-57
2023/01/22 00:41:06;;;;;;;;;;;0.20;99.90;;;;;;5131825;27;19912;-57
2023/01/22 00:43:32;;;;;;;;;;;0.30;99.90;;;;;;5133316;27;19907;-57
2023/01/22 00:45:58;;;;;;;;;;;0.30;99.90;;;;;;5133865;28;19915;-57
2023/01/22 00:48:24;;;;;;;;;;;0.30;99.90;;;;;;5130882;28;19922;-56
2023/01/22 00:50:49;;;;;;;;;;;0.20;99.90;;;;;;5133407;28;19994;-57
2023/01/22 00:53:15;;;;;;;;;;;0.20;99.90;;;;;;5132883;28;19984;-57
2023/01/22 00:55:51;;;;;;;;;;;0.20;99.90;;;;;;5132775;28;20288;-56
2023/01/22 00:58:17;;;;;;;;;;;0.10;99.90;;;;;;5133501;28;19912;-57
2023/01/22 01:00:43;;;;;;;;;;;0.10;99.90;;;;;;5132561;28;19961;-57
2023/01/22 01:03:26;;;;;;;;;;;0.00;99.90;;;;;;5121297;28;19908;-57
2023/01/22 01:05:52;;;;;;;;;;;0.00;99.90;;;;;;5112847;28;20235;-56
2023/01/22 01:08:18;;;;;;;;;;;0.00;99.90;;;;;;5112049;28;19961;-57
2023/01/22 01:10:43;;;;;;;;;;;0.00;99.90;;;;;;5116264;28;19908;-57
2023/01/22 01:13:10;;;;;;;;;;;-0.10;99.90;;;;;;5133425;28;20448;-57
2023/01/22 01:15:36;;;;;;;;;;;-0.10;99.90;;;;;;5122642;28;19943;-57
2023/01/22 01:18:01;;;;;;;;;;;-0.10;99.90;;;;;;5112465;28;19951;-56
2023/01/22 01:20:27;;;;;;;;;;;-0.10;99.90;;;;;;5112807;28;19973;-56
2023/01/22 01:22:52;;;;;;;;;;;-0.10;99.90;;;;;;5111450;28;19907;-57
2023/01/22 01:25:17;;;;;;;;;;;-0.20;99.90;;;;;;5112559;28;19962;-57
2023/01/22 01:27:43;;;;;;;;;;;-0.20;99.90;;;;;;5112535;28;19917;-56
2023/01/22 01:30:10;;;;;;;;;;;-0.20;99.90;;;;;;5112048;28;20353;-57
2023/01/22 01:32:35;;;;;;;;;;;-0.20;99.90;;;;;;5112401;28;19920;-56
2023/01/22 01:35:00;;;;;;;;;;;-0.20;99.90;;;;;;5111345;28;19972;-56
2023/01/22 01:37:26;;;;;;;;;;;-0.30;99.90;;;;;;5115526;28;19908;-56
2023/01/22 01:39:51;;;;;;;;;;;-0.30;99.90;;;;;;5116431;28;19945;-57
2023/01/22 01:42:30;;;;;;;;;;;-0.30;99.90;;;;;;5115750;27;19908;-57
2023/01/22 01:45:14;;;;;;;;;;;-0.30;99.90;;;;;;5115806;28;20340;-57
2023/01/22 01:47:40;;;;;;;;;;;-0.30;99.90;;;;;;5116139;28;19912;-56
2023/01/22 01:50:05;;;;;;;;;;;-0.30;99.90;;;;;;5114965;27;20006;-56
2023/01/22 01:52:31;;;;;;;;;;;-0.30;99.90;;;;;;5115832;27;20267;-57
2023/01/22 01:54:56;;;;;;;;;;;-0.30;99.90;;;;;;5115871;28;19969;-57
2023/01/22 01:57:25;;;;;;;;;;;-0.20;99.90;;;;;;5115455;27;19912;-57
2023/01/22 01:59:51;;;;;;;;;;;-0.20;99.90;;;;;;5116108;28;19995;-56
2023/01/22 02:02:19;;;;;;;;;;;-0.10;99.90;;;;;;5129832;27;19950;-57
2023/01/22 02:04:45;;;;;;;;;;;0.00;99.90;;;;;;5134268;27;19919;-56
2023/01/22 02:07:10;;;;;;;;;;;0.00;99.90;;;;;;5136520;27;19930;-57
2023/01/22 02:09:36;;;;;;;;;;;0.10;99.90;;;;;;5136451;27;19908;-57
2023/01/22 02:12:02;;;;;;;;;;;0.10;99.90;;;;;;5135762;27;19907;-57
2023/01/22 02:14:32;;;;;;;;;;;0.20;99.90;;;;;;5119602;27;19916;-56
2023/01/22 02:17:11;;;;;;;;;;;0.20;99.90;;;;;;5115287;27;19943;-56
2023/01/22 02:19:37;;;;;;;;;;;0.30;99.90;;;;;;5114664;28;19947;-56
2023/01/22 02:22:04;;;;;;;;;;;0.40;99.90;;;;;;5115744;28;19954;-57
2023/01/22 02:24:31;;;;;;;;;;;0.50;99.90;;;;;;5097565;28;19919;-58
2023/01/22 02:26:56;;;;;;;;;;;0.50;99.90;;;;;;5115377;28;19915;-57
2023/01/22 02:29:22;;;;;;;;;;;0.60;99.90;;;;;;5123056;27;19912;-57
2023/01/22 02:31:47;;;;;;;;;;;0.60;99.90;;;;;;5122152;27;19919;-57
2023/01/22 02:34:13;;;;;;;;;;;0.70;99.90;;;;;;5115453;28;19933;-56
2023/01/22 02:36:39;;;;;;;;;;;0.80;99.90;;;;;;5115309;28;19950;-56
2023/01/22 02:39:04;;;;;;;;;;;0.80;99.90;;;;;;5114887;28;19919;-57
2023/01/22 02:41:30;;;;;;;;;;;0.90;99.90;;;;;;5119805;27;19907;-57
2023/01/22 02:43:56;;;;;;;;;;;0.90;99.90;;;;;;5135705;27;19908;-56
2023/01/22 02:46:21;;;;;;;;;;;0.90;99.90;;;;;;5118526;27;19915;-57
2023/01/22 02:48:47;;;;;;;;;;;1.00;99.90;;;;;;5114754;27;19927;-57
2023/01/22 02:51:12;;;;;;;;;;;1.00;99.90;;;;;;5114906;28;19907;-57
2023/01/22 02:53:38;;;;;;;;;;;1.00;99.90;;;;;;5113996;28;19920;-57
2023/01/22 02:56:04;;;;;;;;;;;1.10;99.90;;;;;;5114506;28;19911;-56
2023/01/22 02:58:30;;;;;;;;;;;1.10;99.90;;;;;;5114858;28;19908;-56
2023/01/22 03:00:55;;;;;;;;;;;1.10;99.90;;;;;;5114096;28;19915;-57
2023/01/22 03:03:21;;;;;;;;;;;1.10;99.90;;;;;;5114931;28;20313;-57
2023/01/22 03:05:50;;;;;;;;;;;1.10;99.90;;;;;;5114506;27;19953;-57
2023/01/22 03:08:16;;;;;;;;;;;1.20;99.90;;;;;;5114012;28;20384;-57
2023/01/22 03:10:41;;;;;;;;;;;1.10;99.90;;;;;;5114706;28;19908;-57
2023/01/22 03:21:19;;;;;;;;;;;1.20;99.90;;;;;;5134843;27;19931;-57
2023/01/22 03:23:46;;;;;;;;;;;1.20;99.90;;;;;;5127131;27;19919;-57
2023/01/22 03:26:11;;;;;;;;;;;1.20;99.90;;;;;;5114305;28;19923;-57
2023/01/22 03:28:37;;;;;;;;;;;1.20;99.90;;;;;;5113688;28;19908;-57
2023/01/22 03:31:02;;;;;;;;;;;1.20;99.90;;;;;;5113858;28;19990;-57
2023/01/22 03:33:28;;;;;;;;;;;1.20;99.90;;;;;;5114126;28;19912;-57
2023/01/22 03:35:57;;;;;;;;;;;1.20;99.90;;;;;;5124712;27;19911;-57
2023/01/22 03:38:23;;;;;;;;;;;1.20;99.90;;;;;;5134766;27;19961;-56
2023/01/22 03:40:48;;;;;;;;;;;1.20;99.90;;;;;;5134788;27;19912;-57
2023/01/22 03:43:14;;;;;;;;;;;1.30;99.90;;;;;;5125108;27;19916;-56
2023/01/22 03:45:39;;;;;;;;;;;1.20;99.90;;;;;;5113844;28;20336;-57
2023/01/22 03:48:05;;;;;;;;;;;1.20;99.90;;;;;;5114083;28;19912;-57
2023/01/22 03:50:30;;;;;;;;;;;1.30;99.90;;;;;;5113043;28;19929;-57
2023/01/22 03:52:56;;;;;;;;;;;1.30;99.90;;;;;;5113678;28;19911;-57
2023/01/22 03:55:24;;;;;;;;;;;1.30;99.90;;;;;;5113867;28;20019;-56
2023/01/22 03:57:49;;;;;;;;;;;1.30;99.90;;;;;;5112724;28;20006;-57
2023/01/22 04:00:15;;;;;;;;;;;1.30;99.90;;;;;;5113494;28;19962;-57
2023/01/22 04:02:40;;;;;;;;;;;1.30;99.90;;;;;;5113542;28;19922;-56
2023/01/22 04:05:06;;;;;;;;;;;1.30;99.90;;;;;;5112532;27;20338;-57
2023/01/22 04:07:31;;;;;;;;;;;1.30;99.90;;;;;;5113687;28;19908;-56
2023/01/22 04:09:57;;;;;;;;;;;1.30;99.90;;;;;;5113607;28;19908;-56
2023/01/22 04:12:22;;;;;;;;;;;1.30;99.90;;;;;;5128430;27;19919;-56
2023/01/22 04:14:48;;;;;;;;;;;1.30;99.90;;;;;;5134093;27;19973;-57
2023/01/22 04:17:13;;;;;;;;;;;1.30;99.90;;;;;;5133386;27;20273;-57
2023/01/22 04:19:39;;;;;;;;;;;1.30;99.90;;;;;;5125408;27;19912;-57
2023/01/22 04:22:04;;;;;;;;;;;1.30;99.90;;;;;;5113029;27;19965;-56
2023/01/22 04:24:30;;;;;;;;;;;1.30;99.90;;;;;;5112581;28;20282;-57
2023/01/22 04:26:55;;;;;;;;;;;1.30;99.90;;;;;;5113335;28;19911;-56
2023/01/22 04:29:20;;;;;;;;;;;1.30;99.90;;;;;;5113299;28;19908;-57
2023/01/22 04:31:46;;;;;;;;;;;1.30;99.90;;;;;;5112364;28;21156;-56
2023/01/22 04:34:12;;;;;;;;;;;1.30;99.90;;;;;;5113421;28;19907;-57
2023/01/22 04:36:37;;;;;;;;;;;1.30;99.90;;;;;;5113183;28;20007;-56
2023/01/22 04:39:03;;;;;;;;;;;1.30;99.90;;;;;;5112452;28;20558;-56
2023/01/22 04:41:28;;;;;;;;;;;1.30;99.90;;;;;;5121906;27;19912;-56
2023/01/22 04:43:53;;;;;;;;;;;1.30;99.90;;;;;;5133641;27;19914;-57
2023/01/22 04:46:19;;;;;;;;;;;1.30;99.90;;;;;;5132945;27;20384;-56
2023/01/22 04:48:47;;;;;;;;;;;1.30;99.90;;;;;;5133429;28;19908;-56
2023/01/22 04:51:13;;;;;;;;;;;1.30;99.90;;;;;;5132509;28;19954;-56
2023/01/22 04:53:38;;;;;;;;;;;1.30;99.90;;;;;;5118398;28;19958;-56
2023/01/22 04:56:04;;;;;;;;;;;1.30;99.90;;;;;;5124417;28;19916;-56
2023/01/22 04:58:29;;;;;;;;;;;1.30;99.90;;;;;;5112885;28;19915;-56
2023/01/22 05:00:55;;;;;;;;;;;1.20;99.90;;;;;;5112470;28;19912;-57
2023/01/22 05:03:21;;;;;;;;;;;1.20;99.90;;;;;;5113061;28;19908;-56
2023/01/22 05:05:46;;;;;;;;;;;1.20;99.90;;;;;;5112695;28;20281;-57
2023/01/22 05:08:12;;;;;;;;;;;1.20;99.90;;;;;;5112454;28;19908;-57
2023/01/22 05:10:37;;;;;;;;;;;1.20;99.90;;;;;;5112520;28;20006;-56
2023/01/22 05:13:04;;;;;;;;;;;1.20;99.90;;;;;;5116692;27;19912;-56
2023/01/22 05:15:29;;;;;;;;;;;1.20;99.90;;;;;;5116096;28;19912;-57
2023/01/22 05:17:55;;;;;;;;;;;1.20;99.90;;;;;;5117048;28;19908;-57
2023/01/22 05:20:20;;;;;;;;;;;1.20;99.90;;;;;;5116703;28;20419;-56
2023/01/22 05:22:46;;;;;;;;;;;1.20;99.90;;;;;;5116475;28;19994;-56
2023/01/22 05:25:11;;;;;;;;;;;1.20;99.90;;;;;;5116629;28;19968;-56
2023/01/22 05:27:37;;;;;;;;;;;1.20;99.90;;;;;;5116077;28;20335;-56
2023/01/22 05:30:03;;;;;;;;;;;1.20;99.90;;;;;;5125483;27;19915;-56
2023/01/22 05:32:29;;;;;;;;;;;1.20;99.90;;;;;;5137186;27;20432;-57
2023/01/22 05:34:54;;;;;;;;;;;1.20;99.90;;;;;;5136351;27;19955;-57
2023/01/22 05:37:19;;;;;;;;;;;1.20;99.90;;;;;;5137073;27;19911;-56
2023/01/22 05:39:45;;;;;;;;;;;1.20;99.90;;;;;;5136980;27;19966;-56
2023/01/22 05:42:14;;;;;;;;;;;1.20;99.90;;;;;;5136173;27;19976;-57
2023/01/22 05:44:40;;;;;;;;;;;1.10;99.90;;;;;;5135595;27;20002;-57
2023/01/22 05:47:06;;;;;;;;;;;1.20;99.90;;;;;;5136958;27;19941;-56
2023/01/22 05:49:31;;;;;;;;;;;1.20;99.90;;;;;;5124977;27;19911;-56
2023/01/22 05:51:57;;;;;;;;;;;1.20;99.90;;;;;;5115914;28;19960;-57
2023/01/22 05:54:22;;;;;;;;;;;1.20;99.90;;;;;;5135413;27;20263;-56
2023/01/22 05:56:48;;;;;;;;;;;1.10;99.90;;;;;;5135748;27;19908;-56
2023/01/22 05:59:13;;;;;;;;;;;1.20;99.90;;;;;;5116013;27;19945;-56
2023/01/22 06:01:39;;;;;;;;;;;1.20;99.90;;;;;;5115971;28;19930;-56
2023/01/22 06:04:04;;;;;;;;;;;1.20;99.90;;;;;;5115130;28;20393;-56
2023/01/22 06:06:30;;;;;;;;;;;1.20;99.90;;;;;;5116027;28;19966;-57
2023/01/22 06:08:55;;;;;;;;;;;1.20;99.90;;;;;;5115694;28;20480;-56
2023/01/22 06:11:21;;;;;;;;;;;1.20;99.90;;;;;;5115286;28;19965;-56
2023/01/22 06:13:47;;;;;;;;;;;1.20;99.90;;;;;;5115771;28;19908;-56
2023/01/22 06:16:12;;;;;;;;;;;1.20;99.90;;;;;;5115801;28;19908;-56
2023/01/22 06:18:37;;;;;;;;;;;1.10;99.90;;;;;;5114444;27;19908;-57
2023/01/22 06:21:04;;;;;;;;;;;1.20;99.90;;;;;;5136024;27;20324;-56
2023/01/22 06:23:30;;;;;;;;;;;1.20;99.90;;;;;;5135705;27;20286;-56
2023/01/22 06:25:56;;;;;;;;;;;1.20;99.90;;;;;;5135379;27;19915;-56
2023/01/22 06:28:22;;;;;;;;;;;1.20;99.90;;;;;;5135977;27;20397;-56
2023/01/22 06:30:48;;;;;;;;;;;1.20;99.90;;;;;;5135301;27;19950;-56
2023/01/22 06:33:13;;;;;;;;;;;1.20;99.90;;;;;;5134526;27;19911;-56
2023/01/22 06:35:39;;;;;;;;;;;1.20;99.90;;;;;;5135208;27;19907;-56
2023/01/22 06:38:04;;;;;;;;;;;1.20;99.90;;;;;;5134185;27;20002;-56
2023/01/22 06:40:30;;;;;;;;;;;1.20;99.90;;;;;;5134950;27;20414;-56
2023/01/22 06:42:56;;;;;;;;;;;1.20;99.90;;;;;;5122805;27;19918;-56
2023/01/22 06:45:23;;;;;;;;;;;1.20;99.90;;;;;;5113397;28;19916;-56
2023/01/22 06:47:48;;;;;;;;;;;1.20;99.90;;;;;;5114186;28;20011;-57
2023/01/22 06:50:14;;;;;;;;;;;1.20;99.90;;;;;;5125710;27;19990;-56
2023/01/22 06:52:39;;;;;;;;;;;1.20;99.90;;;;;;5133752;27;19914;-55
2023/01/22 06:55:05;;;;;;;;;;;1.20;99.90;;;;;;5114434;27;19920;-56
2023/01/22 06:57:30;;;;;;;;;;;1.20;99.90;;;;;;5116477;27;19966;-56
2023/01/22 06:59:56;;;;;;;;;;;1.30;99.90;;;;;;5118337;27;19912;-56
2023/01/22 07:02:21;;;;;;;;;;;1.20;99.90;;;;;;5122052;27;19915;-56
2023/01/22 07:04:46;;;;;;;;;;;1.20;99.90;;;;;;5122517;27;20442;-56
2023/01/22 07:07:12;;;;;;;;;;;1.20;99.90;;;;;;5122597;27;19953;-56
2023/01/22 07:09:38;;;;;;;;;;;1.30;99.90;;;;;;5118360;27;20285;-56
2023/01/22 07:12:03;;;;;;;;;;;1.20;99.90;;;;;;5119051;27;20371;-56
2023/01/22 07:14:32;;;;;;;;;;;1.20;99.90;;;;;;5119075;27;19936;-57
2023/01/22 07:16:57;;;;;;;;;;;1.30;99.90;;;;;;5121247;27;19919;-56
2023/01/22 07:19:23;;;;;;;;;;;1.20;99.90;;;;;;5118507;27;19912;-57
2023/01/22 07:21:48;;;;;;;;;;;1.20;99.90;;;;;;5121432;27;20383;-56
2023/01/22 07:24:14;;;;;;;;;;;1.20;99.90;;;;;;5123017;27;19950;-57
2023/01/22 07:26:39;;;;;;;;;;;1.20;99.90;;;;;;5118304;27;20058;-57
2023/01/22 07:29:05;;;;;;;;;;;1.20;99.90;;;;;;5119941;27;19918;-56
2023/01/22 07:31:31;;;;;;;;;;;1.20;99.90;;;;;;5120229;27;20030;-56
2023/01/22 07:33:56;;;;;;;;;;;1.20;99.90;;;;;;5120133;27;19963;-57
2023/01/22 07:36:22;;;;;;;;;;;1.20;99.90;;;;;;5118491;27;20315;-56
2023/01/22 07:38:47;;;;;;;;;;;1.20;99.90;;;;;;5120700;27;19912;-57
2023/01/22 07:41:13;;;;;;;;;;;1.20;99.90;;;;;;5113978;27;20332;-57
2023/01/22 07:43:39;;;;;;;;;;;1.20;99.90;;;;;;5118116;27;19943;-57
2023/01/22 07:46:05;;;;;;;;;;;1.20;99.90;;;;;;5117573;27;19919;-56
2023/01/22 07:48:31;;;;;;;;;;;1.20;99.90;;;;;;5121259;27;19998;-56
2023/01/22 07:51:00;;;;;;;;;;;1.20;99.90;;;;;;5130138;27;20036;-56
2023/01/22 07:53:26;;;;;;;;;;;1.20;99.90;;;;;;5122680;27;20409;-56
2023/01/22 07:55:51;;;;;;;;;;;1.20;99.90;;;;;;5119731;27;19911;-56
2023/01/22 07:58:17;;;;;;;;;;;1.20;99.90;;;;;;5122825;27;19908;-57
2023/01/22 08:00:42;;;;;;;;;;;1.20;99.90;;;;;;5121681;27;19957;-57
2023/01/22 08:03:12;;;;;;;;;;;1.20;99.90;;;;;;5121687;27;19911;-57
2023/01/22 08:05:38;;;;;;;;;;;1.20;99.90;;;;;;5121965;27;19927;-56
2023/01/22 08:08:04;;;;;;;;;;;1.20;99.90;;;;;;5119403;27;20374;-56
2023/01/22 08:10:29;;;;;;;;;;;1.20;99.90;;;;;;5117060;27;19955;-56
2023/01/22 08:12:55;;;;;;;;;;;1.30;99.90;;;;;;5113605;28;19962;-57
2023/01/22 08:15:20;;;;;;;;;;;1.30;99.90;;;;;;5117443;27;20393;-56
2023/01/22 08:17:48;;;;;;;;;;;1.30;99.90;;;;;;5114246;27;20032;-56
2023/01/22 08:20:14;;;;;;;;;;;1.30;99.90;;;;;;5126212;27;20443;-56
2023/01/22 08:22:39;;;;;;;;;;;1.30;99.90;;;;;;5126814;27;20004;-56
2023/01/22 08:25:05;;;;;;;;;;;1.30;99.90;;;;;;5127632;27;20311;-56
2023/01/22 08:27:33;;;;;;;;;;;1.40;99.90;;;;;;5113338;28;19915;-56
2023/01/22 08:29:59;;;;;;;;;;;1.30;99.90;;;;;;5113380;28;19908;-56
2023/01/22 08:32:24;;;;;;;;;;;1.40;99.90;;;;;;5114130;27;19912;-56
2023/01/22 08:34:53;;;;;;;;;;;1.40;99.90;;;;;;5112574;28;19912;-56
2023/01/22 08:37:22;;;;;;;;;;;1.40;99.90;;;;;;5112605;28;19908;-57
2023/01/22 08:39:47;;;;;;;;;;;1.40;99.90;;;;;;5117237;27;19955;-56
2023/01/22 08:42:13;;;;;;;;;;;1.40;99.90;;;;;;5131403;27;20642;-56
2023/01/22 08:44:38;;;;;;;;;;;1.40;99.90;;;;;;5130676;27;19929;-57
2023/01/22 08:47:04;;;;;;;;;;;1.40;99.90;;;;;;5130863;27;19907;-57
2023/01/22 08:49:29;;;;;;;;;;;1.40;99.90;;;;;;5123236;28;19976;-57
2023/01/22 08:51:55;;;;;;;;;;;1.50;99.90;;;;;;5129353;28;20049;-57
2023/01/22 08:54:21;;;;;;;;;;;1.50;99.90;;;;;;5124820;27;20006;-56
2023/01/22 08:56:46;;;;;;;;;;;1.50;99.90;;;;;;5131960;28;19915;-57
2023/01/22 08:59:13;;;;;;;;;;;1.50;99.90;;;;;;5128428;28;19907;-57
2023/01/22 09:01:38;;;;;;;;;;;1.50;99.90;;;;;;5129932;28;20336;-57
2023/01/22 09:04:05;;;;;;;;;;;1.60;99.90;;;;;;5127649;28;20003;-57
2023/01/22 09:06:31;;;;;;;;;;;1.60;99.90;;;;;;5124476;28;19924;-57
2023/01/22 09:08:58;;;;;;;;;;;1.60;99.90;;;;;;5129668;28;20026;-56
2023/01/22 09:11:23;;;;;;;;;;;1.60;99.90;;;;;;5123233;28;20281;-57
2023/01/22 09:13:49;;;;;;;;;;;1.70;99.90;;;;;;5130986;28;20006;-56
2023/01/22 09:16:15;;;;;;;;;;;1.70;99.90;;;;;;5129868;27;19973;-56
2023/01/22 09:18:40;;;;;;;;;;;1.80;99.90;;;;;;5125959;28;19959;-57
2023/01/22 09:21:07;;;;;;;;;;;1.80;99.90;;;;;;5125668;28;20511;-57
2023/01/22 09:23:32;;;;;;;;;;;1.90;99.90;;;;;;5127494;28;19911;-56
2023/01/22 09:25:59;;;;;;;;;;;1.90;99.90;;;;;;5127220;28;19927;-57
2023/01/22 09:28:24;;;;;;;;;;;2.00;99.90;;;;;;5128580;28;19925;-57
2023/01/22 09:30:50;;;;;;;;;;;2.00;99.90;;;;;;5129663;28;19912;-57
2023/01/22 09:33:15;;;;;;;;;;;2.10;99.90;;;;;;5121080;28;19935;-56
2023/01/22 09:35:41;;;;;;;;;;;2.10;99.90;;;;;;5112853;28;19918;-56
2023/01/22 09:38:07;;;;;;;;;;;2.10;99.90;;;;;;5112259;27;19916;-56
2023/01/22 09:41:02;;;;;;;;;;;2.10;99.90;;;;;;5112139;28;19912;-57
2023/01/22 09:43:33;;;;;;;;;;;2.10;99.90;;;;;;5056092;28;19909;-56
2023/01/22 09:46:01;;;;;;;;;;;2.10;99.90;;;;;;5112404;28;19923;-57
2023/01/22 09:48:32;;;;;;;;;;;2.00;99.90;;;;;;5112134;28;19912;-57
2023/01/22 09:50:58;;;;;;;;;;;2.10;99.90;;;;;;5114424;28;19912;-57
2023/01/22 09:53:23;;;;;;;;;;;2.10;99.90;;;;;;5118345;28;19985;-57
2023/01/22 09:55:50;;;;;;;;;;;2.20;99.90;;;;;;5116327;28;19912;-56
2023/01/22 09:58:17;;;;;;;;;;;2.20;99.90;;;;;;5123086;27;19919;-57
2023/01/22 10:00:47;;;;;;;;;;;2.20;99.90;;;;;;5113285;27;19922;-57
2023/01/22 10:03:31;;;;;;;;;;;2.30;99.90;;;;;;5114784;27;19934;-57
2023/01/22 10:06:02;;;;;;;;;;;2.30;99.90;;;;;;5123988;27;19924;-57
2023/01/22 10:08:37;;;;;;;;;;;2.30;99.90;;;;;;5124013;27;20404;-57
2023/01/22 10:11:03;;;;;;;;;;;2.40;99.90;;;;;;5120791;27;19915;-56
2023/01/22 10:13:31;;;;;;;;;;;2.40;99.90;;;;;;5115870;28;19962;-57
2023/01/22 10:15:57;;;;;;;;;;;2.50;99.90;;;;;;5122280;27;19918;-57
2023/01/22 10:18:41;;;;;;;;;;;2.50;99.90;;;;;;5124175;27;19907;-57
2023/01/22 10:21:17;;;;;;;;;;;2.60;99.90;;;;;;5135697;27;20366;-56
2023/01/22 10:23:42;;;;;;;;;;;2.60;99.90;;;;;;5130903;27;19911;-57
2023/01/22 10:26:14;;;;;;;;;;;2.70;99.90;;;;;;5135795;27;20339;-57
2023/01/22 10:28:42;;;;;;;;;;;2.70;99.90;;;;;;5135686;27;19915;-57
2023/01/22 10:31:39;;;;;;;;;;;2.70;99.90;;;;;;5128890;27;19912;-57
2023/01/22 10:34:15;;;;;;;;;;;2.80;99.90;;;;;;5104967;27;20373;-56
2023/01/22 10:36:47;;;;;;;;;;;2.80;99.90;;;;;;5135640;27;19913;-57
2023/01/22 10:39:14;;;;;;;;;;;2.80;99.90;;;;;;5135043;27;19937;-56
2023/01/22 10:41:40;;;;;;;;;;;2.90;99.90;;;;;;5135538;27;19937;-56
2023/01/22 10:44:16;;;;;;;;;;;2.90;99.90;;;;;;5134619;27;19911;-57
2023/01/22 10:46:41;;;;;;;;;;;2.90;99.90;;;;;;5135176;27;19915;-57
2023/01/22 10:49:16;;;;;;;;;;;2.90;99.90;;;;;;5134904;27;19911;-57
2023/01/22 10:51:44;;;;;;;;;;;2.80;99.90;;;;;;5133854;27;20032;-57
2023/01/22 10:54:18;;;;;;;;;;;2.80;99.90;;;;;;5134301;27;19919;-57
2023/01/22 10:56:44;;;;;;;;;;;2.80;99.90;;;;;;5118359;27;19923;-57
2023/01/22 10:59:21;;;;;;;;;;;2.80;99.90;;;;;;5114018;28;20296;-56
2023/01/22 11:01:47;;;;;;;;;;;2.80;99.90;;;;;;5117180;27;20378;-56
2023/01/22 11:04:21;;;;;;;;;;;2.80;99.90;;;;;;5117540;27;19954;-56
2023/01/22 11:06:49;;;;;;;;;;;2.80;99.90;;;;;;5113491;28;20011;-57
2023/01/22 11:09:17;;;;;;;;;;;2.90;99.90;;;;;;5114648;28;19908;-57
2023/01/22 11:11:46;;;;;;;;;;;2.90;99.90;;;;;;5116464;27;19911;-57
2023/01/22 11:14:22;;;;;;;;;;;2.90;99.90;;;;;;5113611;28;19908;-56
2023/01/22 11:16:50;;;;;;;;;;;3.00;99.90;;;;;;5114714;27;19920;-56
2023/01/22 11:19:16;;;;;;;;;;;3.00;99.90;;;;;;5133566;27;19923;-57
2023/01/22 11:21:46;;;;;;;;;;;3.00;99.90;;;;;;5134581;27;19908;-56
2023/01/22 11:24:18;;;;;;;;;;;3.10;99.90;;;;;;5114039;28;20370;-57
2023/01/22 11:27:01;;;;;;;;;;;3.10;99.90;;;;;;5119092;27;19919;-57
2023/01/22 11:29:29;;;;;;;;;;;3.10;99.90;;;;;;5118710;27;19960;-56
2023/01/22 11:32:01;;;;;;;;;;;3.10;99.90;;;;;;5116260;27;19916;-56
2023/01/22 11:34:38;;;;;;;;;;;3.10;99.90;;;;;;5118893;27;19912;-57
2023/01/22 11:37:10;;;;;;;;;;;3.10;99.90;;;;;;5122664;27;20350;-57
2023/01/22 11:39:42;;;;;;;;;;;3.10;99.90;;;;;;5121718;27;19930;-57
2023/01/22 11:42:11;;;;;;;;;;;3.10;99.90;;;;;;5124847;27;19919;-56
2023/01/22 11:44:42;;;;;;;;;;;3.00;99.90;;;;;;5131963;27;19963;-57
2023/01/22 11:47:28;;;;;;;;;;;3.00;99.90;;;;;;5133000;27;19916;-56
2023/01/22 11:50:15;;;;;;;;;;;3.00;99.90;;;;;;5130351;27;20330;-56
2023/01/22 11:52:47;;;;;;;;;;;3.10;99.90;;;;;;5130181;27;19915;-57
2023/01/22 11:55:15;;;;;;;;;;;3.10;99.90;;;;;;5122633;27;20379;-57
2023/01/22 11:57:42;;;;;;;;;;;3.10;99.90;;;;;;5124527;27;20002;-57
2023/01/22 12:00:16;;;;;;;;;;;3.10;99.90;;;;;;5118915;27;19911;-57
2023/01/22 12:02:51;;;;;;;;;;;3.10;99.90;;;;;;5119508;27;19908;-57
2023/01/22 12:05:35;;;;;;;;;;;3.10;99.90;;;;;;5124249;27;20050;-57
2023/01/22 12:08:03;;;;;;;;;;;3.00;99.90;;;;;;5116972;27;19912;-56
2023/01/22 12:10:47;;;;;;;;;;;3.00;99.90;;;;;;5112312;28;20263;-57
2023/01/22 12:13:18;;;;;;;;;;;3.00;99.90;;;;;;5128028;27;19965;-56
2023/01/22 12:15:54;;;;;;;;;;;3.00;99.90;;;;;;5130919;27;19915;-57
2023/01/22 12:18:40;;;;;;;;;;;3.10;99.90;;;;;;5117268;27;19911;-57
2023/01/22 12:21:14;;;;;;;;;;;3.00;99.90;;;;;;5112701;27;19982;-57
2023/01/22 12:23:52;;;;;;;;;;;3.00;99.90;;;;;;5126959;27;20342;-57
2023/01/22 12:26:22;;;;;;;;;;;3.00;99.90;;;;;;5116169;27;20286;-57
2023/01/22 12:28:55;;;;;;;;;;;3.00;99.90;;;;;;5121672;27;19911;-56
2023/01/22 12:31:31;;;;;;;;;;;3.00;99.90;;;;;;5116332;27;19947;-57
2023/01/22 12:33:59;;;;;;;;;;;3.00;99.90;;;;;;5114739;27;19911;-57
2023/01/22 12:36:25;;;;;;;;;;;3.00;99.90;;;;;;5118686;27;20027;-56
2023/01/22 12:39:07;;;;;;;;;;;3.00;99.90;;;;;;5119396;27;19911;-57
2023/01/22 12:41:32;;;;;;;;;;;3.00;99.90;;;;;;5126323;27;19911;-56
2023/01/22 12:44:01;;;;;;;;;;;3.00;99.90;;;;;;5128383;27;20072;-57
2023/01/22 12:46:33;;;;;;;;;;;2.90;99.90;;;;;;5128356;27;19924;-57
2023/01/22 12:49:03;;;;;;;;;;;2.90;99.90;;;;;;5132349;28;19911;-57
2023/01/22 12:51:41;;;;;;;;;;;2.90;99.90;;;;;;5131436;28;19907;-56
2023/01/22 12:54:20;;;;;;;;;;;2.90;99.90;;;;;;5126401;28;19919;-57
2023/01/22 12:56:47;;;;;;;;;;;2.90;99.90;;;;;;5129757;28;19947;-57
2023/01/22 12:59:40;;;;;;;;;;;2.90;99.90;;;;;;5131124;28;20362;-57
2023/01/22 13:02:24;;;;;;;;;;;2.90;99.90;;;;;;5128387;27;19988;-56
2023/01/22 13:04:50;;;;;;;;;;;2.90;99.90;;;;;;5126239;28;19919;-57
2023/01/22 13:07:20;;;;;;;;;;;2.90;99.90;;;;;;5131625;28;20021;-57
2023/01/22 13:09:46;;;;;;;;;;;2.90;99.90;;;;;;5130189;28;19911;-56
2023/01/22 13:12:24;;;;;;;;;;;2.90;99.90;;;;;;5133305;28;19907;-56
2023/01/22 13:14:49;;;;;;;;;;;2.90;99.90;;;;;;5133918;28;19953;-56
2023/01/22 13:17:19;;;;;;;;;;;2.90;99.90;;;;;;5133435;28;20356;-57
2023/01/22 13:19:46;;;;;;;;;;;2.90;99.90;;;;;;5132418;28;19907;-57
2023/01/22 13:22:16;;;;;;;;;;;2.90;99.90;;;;;;5133356;28;19914;-56
2023/01/22 13:24:49;;;;;;;;;;;2.90;99.90;;;;;;5133291;28;19916;-57
2023/01/22 13:27:21;;;;;;;;;;;2.90;99.90;;;;;;5132524;28;19908;-57
2023/01/22 13:29:46;;;;;;;;;;;2.90;99.90;;;;;;5128857;28;19911;-56
2023/01/22 13:32:16;;;;;;;;;;;2.90;99.90;;;;;;5124111;27;19912;-56
2023/01/22 13:34:41;;;;;;;;;;;2.90;99.90;;;;;;5115636;28;19907;-57
2023/01/22 13:37:18;;;;;;;;;;;3.00;99.90;;;;;;5127310;27;19908;-57
2023/01/22 13:39:44;;;;;;;;;;;3.00;99.90;;;;;;5133178;27;19915;-57
2023/01/22 13:42:11;;;;;;;;;;;3.00;99.90;;;;;;5116420;28;19908;-57
2023/01/22 13:44:38;;;;;;;;;;;3.00;99.90;;;;;;5133518;27;20003;-56
2023/01/22 13:47:04;;;;;;;;;;;3.00;99.90;;;;;;5136226;27;19977;-57
2023/01/22 13:49:41;;;;;;;;;;;3.00;99.90;;;;;;5136771;27;19912;-56
2023/01/22 13:52:07;;;;;;;;;;;3.00;99.90;;;;;;5137007;27;20362;-56
2023/01/22 13:54:41;;;;;;;;;;;3.10;99.90;;;;;;5136045;27;20049;-57
2023/01/22 13:57:10;;;;;;;;;;;3.10;99.90;;;;;;5136825;27;19919;-56
2023/01/22 13:59:35;;;;;;;;;;;3.10;99.90;;;;;;5136687;27;19907;-56
2023/01/22 14:02:17;;;;;;;;;;;3.10;99.90;;;;;;5135078;27;19964;-56
2023/01/22 14:04:42;;;;;;;;;;;3.10;99.90;;;;;;5116865;27;19919;-56
2023/01/22 14:07:12;;;;;;;;;;;3.10;99.90;;;;;;5119457;27;20266;-56
2023/01/22 14:09:39;;;;;;;;;;;3.20;99.90;;;;;;5123503;27;19926;-56
2023/01/22 14:12:13;;;;;;;;;;;3.20;99.90;;;;;;5123293;27;19957;-55
2023/01/22 14:14:39;;;;;;;;;;;3.20;99.90;;;;;;5130358;27;19911;-56
2023/01/22 14:17:05;;;;;;;;;;;3.20;99.90;;;;;;5129247;27;20394;-56
2023/01/22 14:19:31;;;;;;;;;;;3.20;99.90;;;;;;5131382;27;19998;-56
2023/01/22 14:21:56;;;;;;;;;;;3.20;99.90;;;;;;5126662;27;19961;-56
2023/01/22 14:24:22;;;;;;;;;;;3.20;99.90;;;;;;5133722;27;19915;-55
2023/01/22 14:26:47;;;;;;;;;;;3.20;99.90;;;;;;5125804;27;20569;-56
2023/01/22 14:29:13;;;;;;;;;;;3.10;99.90;;;;;;5131561;27;20171;-56
2023/01/22 14:31:38;;;;;;;;;;;3.20;99.90;;;;;;5127810;27;19911;-55
2023/01/22 14:34:04;;;;;;;;;;;3.20;99.90;;;;;;5124149;27;19911;-56
2023/01/22 14:36:29;;;;;;;;;;;3.20;99.90;;;;;;5125478;27;19999;-56
2023/01/22 14:38:56;;;;;;;;;;;3.20;99.90;;;;;;5104557;27;19918;-55
2023/01/22 14:41:22;;;;;;;;;;;3.20;99.90;;;;;;5120423;27;20313;-56